| time (UTC) | temp F | wind direction | speed MPH | gust MPH | rain 1hr in | rain 24hr in | rain mn in | humidity % | barometer mb |
| 20260508193026 | 77 | 217 | 6.0 | 16.0 | 0.12 | 0.12 | 0.12 | 59 | 1004.3 |
| 20260508191524 | 77 | 236 | 8.0 | 13.0 | 0.01 | 0.01 | 0.01 | 59 | 1004.6 |
| 20260508190021 | 77 | 209 | 0.0 | 13.0 | 0.01 | 0.01 | 0.01 | 61 | 1005.1 |
| 20260508184523 | 80 | 206 | 10.0 | 16.0 | 0.00 | 0.00 | 0.00 | 50 | 1005.5 |
| 20260508183011 | 80 | 232 | 8.0 | 16.0 | 0.00 | 0.00 | 0.00 | 50 | 1006.0 |
| 20260508181509 | 79 | 235 | 9.0 | 19.0 | 0.00 | 0.00 | 0.00 | 49 | 1006.3 |
| 20260508180006 | 79 | 251 | 9.0 | 22.0 | 0.00 | 0.00 | 0.00 | 49 | 1006.3 |
| 20260508174505 | 78 | 229 | 11.0 | 19.0 | 0.00 | 0.00 | 0.00 | 47 | 1006.6 |
| 20260508173100 | 78 | 159 | 10.0 | 17.0 | 0.00 | 0.00 | 0.00 | 47 | 1006.6 |
| 20260508171557 | 77 | 212 | 13.0 | 18.0 | 0.00 | 0.00 | 0.00 | 44 | 1007.0 |
| 20260508170053 | 76 | 196 | 13.0 | 20.0 | 0.00 | 0.00 | 0.00 | 44 | 1007.0 |
| 20260508164600 | 76 | 208 | 12.0 | 23.0 | 0.00 | 0.00 | 0.00 | 44 | 1007.3 |
| 20260508163045 | 74 | 230 | 8.0 | 17.0 | 0.00 | 0.00 | 0.00 | 49 | 1007.6 |
| 20260508161548 | 73 | 175 | 12.0 | 18.0 | 0.00 | 0.00 | 0.00 | 48 | 1008.0 |
| 20260508160039 | 73 | 213 | 9.0 | 19.0 | 0.00 | 0.00 | 0.00 | 49 | 1008.2 |
| 20260508154542 | 73 | 202 | 9.0 | 16.0 | 0.00 | 0.00 | 0.00 | 52 | 1008.1 |
| 20260508153034 | 71 | 190 | 10.0 | 18.0 | 0.00 | 0.00 | 0.00 | 54 | 1008.4 |
| 20260508151532 | 71 | 214 | 10.0 | 15.0 | 0.00 | 0.00 | 0.00 | 56 | 1008.6 |
| 20260508150027 | 70 | 246 | 10.0 | 18.0 | 0.00 | 0.00 | 0.00 | 56 | 1008.9 |
| 20260508144542 | 69 | 243 | 9.0 | 17.0 | 0.00 | 0.00 | 0.00 | 61 | 1009.1 |
| 20260508143018 | 67 | 218 | 8.0 | 13.0 | 0.00 | 0.00 | 0.00 | 65 | 1009.1 |
| 20260508141513 | 66 | 244 | 10.0 | 17.0 | 0.00 | 0.00 | 0.00 | 66 | 1009.4 |
| 20260508140011 | 64 | 173 | 6.0 | 16.0 | 0.00 | 0.00 | 0.00 | 70 | 1009.5 |
| 20260508134507 | 63 | 224 | 6.0 | 11.0 | 0.00 | 0.00 | 0.00 | 73 | 1009.7 |
| 20260508133003 | 61 | 167 | 5.0 | 12.0 | 0.00 | 0.00 | 0.00 | 74 | 1009.8 |
| 20260508131502 | 60 | 211 | 6.0 | 10.0 | 0.00 | 0.00 | 0.00 | 76 | 1009.8 |
| 20260508130001 | 59 | 209 | 6.0 | 9.0 | 0.00 | 0.00 | 0.00 | 77 | 1009.9 |
| 20260508124600 | 58 | 207 | 0.0 | 0.0 | 0.00 | 0.00 | 0.00 | 80 | 1009.9 |
| 20260508123111 | 56 | 149 | 0.0 | 0.0 | 0.00 | 0.00 | 0.00 | 82 | 1009.8 |
| 20260508121605 | 55 | 159 | 0.0 | 0.0 | 0.00 | 0.00 | 0.00 | 84 | 1009.6 |
| 20260508120057 | 54 | 143 | 0.0 | 0.0 | 0.00 | 0.00 | 0.00 | 84 | 1009.7 |
| 20260508114557 | 53 | 151 | 0.0 | 0.0 | 0.00 | 0.00 | 0.00 | 83 | 1009.7 |
| 20260508113108 | 53 | 145 | 0.0 | 0.0 | 0.00 | 0.00 | 0.00 | 82 | 1009.6 |
| 20260508111602 | 54 | 159 | 0.0 | 4.0 | 0.00 | 0.00 | 0.00 | 79 | 1009.3 |
| 20260508110056 | 57 | 159 | 0.0 | 8.0 | 0.00 | 0.00 | 0.00 | 74 | 1009.4 |
| 20260508104550 | 56 | 181 | 4.0 | 7.0 | 0.00 | 0.00 | 0.00 | 76 | 1009.4 |
| 20260508103057 | 55 | 208 | 0.0 | 0.0 | 0.00 | 0.00 | 0.00 | 75 | 1009.4 |
| 20260508101548 | 55 | 225 | 0.0 | 0.0 | 0.00 | 0.00 | 0.00 | 74 | 1009.3 |
| 20260508100046 | 55 | 209 | 0.0 | 0.0 | 0.00 | 0.00 | 0.00 | 72 | 1009.3 |
| 20260508094543 | 56 | 217 | 0.0 | 0.0 | 0.00 | 0.00 | 0.00 | 70 | 1009.4 |
| 20260508093041 | 57 | 202 | 0.0 | 1.0 | 0.00 | 0.00 | 0.00 | 68 | 1009.3 |
| 20260508091547 | 57 | 203 | 2.0 | 8.0 | 0.00 | 0.00 | 0.00 | 67 | 1009.1 |
| 20260508090049 | 58 | 218 | 5.0 | 11.0 | 0.00 | 0.00 | 0.00 | 65 | 1009.0 |
| 20260508084533 | 58 | 192 | 4.0 | 9.0 | 0.00 | 0.00 | 0.00 | 65 | 1008.9 |
| 20260508083038 | 58 | 192 | 4.0 | 12.0 | 0.00 | 0.00 | 0.00 | 64 | 1009.1 |
| 20260508081530 | 58 | 204 | 6.0 | 9.0 | 0.00 | 0.00 | 0.00 | 64 | 1009.2 |
| 20260508080028 | 59 | 217 | 0.0 | 0.0 | 0.00 | 0.00 | 0.00 | 63 | 1009.4 |
| 20260508074536 | 59 | 192 | 3.0 | 11.0 | 0.00 | 0.00 | 0.00 | 63 | 1009.4 |
| 20260508073029 | 59 | 202 | 5.0 | 11.0 | 0.00 | 0.00 | 0.00 | 63 | 1009.7 |
| 20260508071522 | 58 | 154 | 4.0 | 12.0 | 0.00 | 0.00 | 0.00 | 64 | 1010.0 |
| 20260508070020 | 58 | 157 | 0.0 | 0.0 | 0.00 | 0.00 | 0.00 | 63 | 1010.0 |
| 20260508064517 | 59 | 148 | 0.0 | 0.0 | 0.00 | 0.00 | 0.00 | 62 | 1010.1 |
| 20260508063015 | 59 | 144 | 2.0 | 7.0 | 0.00 | 0.00 | 0.00 | 60 | 1010.1 |
| 20260508061516 | 60 | 163 | 4.0 | 8.0 | 0.00 | 0.00 | 0.00 | 60 | 1010.1 |
| 20260508060009 | 60 | 161 | 1.0 | 10.0 | 0.00 | 0.00 | 0.00 | 59 | 1010.1 |
| 20260508054507 | 60 | 162 | 0.0 | 6.0 | 0.00 | 0.00 | 0.00 | 58 | 1010.2 |
| 20260508053004 | 61 | 155 | 5.0 | 9.0 | 0.00 | 0.00 | 0.00 | 56 | 1010.4 |
| 20260508051502 | 61 | 149 | 5.0 | 9.0 | 0.00 | 0.00 | 0.00 | 56 | 1010.5 |
| 20260508050059 | 61 | 152 | 5.0 | 10.0 | 0.00 | 0.00 | 0.00 | 55 | 1010.5 |
| 20260508044559 | 62 | 173 | 5.0 | 9.0 | 0.00 | 0.00 | 0.00 | 54 | 1010.6 |
| 20260508043104 | 62 | 164 | 5.0 | 12.0 | 0.00 | 0.00 | 0.00 | 54 | 1010.7 |
| 20260508041616 | 63 | 151 | 6.0 | 11.0 | 0.00 | 0.00 | 0.00 | 52 | 1010.8 |
| 20260508040110 | 63 | 164 | 8.0 | 14.0 | 0.00 | 0.00 | 0.00 | 51 | 1010.8 |
| 20260508034558 | 64 | 158 | 7.0 | 17.0 | 0.00 | 0.00 | 0.00 | 51 | 1010.9 |
| 20260508033054 | 63 | 186 | 6.0 | 10.0 | 0.00 | 0.00 | 0.00 | 51 | 1010.8 |
| 20260508031557 | 63 | 150 | 4.0 | 8.0 | 0.00 | 0.00 | 0.00 | 51 | 1010.7 |
| 20260508030052 | 63 | 158 | 4.0 | 9.0 | 0.00 | 0.00 | 0.00 | 50 | 1010.8 |
| 20260508024604 | 64 | 133 | 2.0 | 8.0 | 0.00 | 0.00 | 0.00 | 50 | 1010.7 |
| 20260508023052 | 64 | 141 | 4.0 | 8.0 | 0.00 | 0.00 | 0.00 | 49 | 1010.6 |
| 20260508021550 | 65 | 154 | 5.0 | 10.0 | 0.00 | 0.00 | 0.00 | 49 | 1010.5 |
| 20260508020052 | 65 | 137 | 0.0 | 6.0 | 0.00 | 0.00 | 0.00 | 48 | 1010.5 |
| 20260508014549 | 66 | 143 | 0.0 | 0.0 | 0.00 | 0.00 | 0.00 | 46 | 1010.4 |
| 20260508013051 | 68 | 145 | 0.0 | 8.0 | 0.00 | 0.00 | 0.00 | 42 | 1010.1 |
| 20260508011555 | 69 | 155 | 0.0 | 7.0 | 0.00 | 0.00 | 0.00 | 40 | 1010.0 |
| 20260508010047 | 71 | 174 | 5.0 | 12.0 | 0.00 | 0.00 | 0.00 | 36 | 1009.9 |
| 20260508004549 | 71 | 192 | 6.0 | 12.0 | 0.00 | 0.00 | 0.00 | 36 | 1009.8 |
| 20260508003042 | 72 | 204 | 7.0 | 13.0 | 0.00 | 0.00 | 0.00 | 35 | 1009.7 |
| 20260508001542 | 72 | 212 | 3.0 | 13.0 | 0.00 | 0.00 | 0.00 | 36 | 1009.8 |
| 20260508000039 | 72 | 183 | 5.0 | 15.0 | 0.00 | 0.00 | 0.00 | 35 | 1009.8 |
| 20260507234539 | 73 | 202 | 8.0 | 15.0 | 0.00 | 0.00 | 0.00 | 34 | 1009.8 |
| 20260507233054 | 74 | 211 | 8.0 | 13.0 | 0.00 | 0.00 | 0.00 | 32 | 1009.8 |
| 20260507231538 | 74 | 170 | 8.0 | 12.0 | 0.00 | 0.00 | 0.00 | 33 | 1009.9 |
| 20260507230035 | 74 | 214 | 6.0 | 12.0 | 0.00 | 0.00 | 0.00 | 32 | 1010.1 |
| 20260507224533 | 74 | 223 | 5.0 | 12.0 | 0.00 | 0.00 | 0.00 | 31 | 1010.3 |
| 20260507223032 | 75 | 189 | 5.0 | 13.0 | 0.00 | 0.00 | 0.00 | 34 | 1010.4 |
| 20260507221535 | 75 | 204 | 5.0 | 10.0 | 0.00 | 0.00 | 0.00 | 33 | 1010.6 |
| 20260507220030 | 74 | 180 | 7.0 | 14.0 | 0.00 | 0.00 | 0.00 | 31 | 1010.7 |
| 20260507214526 | 74 | 232 | 2.0 | 14.0 | 0.00 | 0.00 | 0.00 | 31 | 1010.9 |
| 20260507213028 | 74 | 218 | 7.0 | 11.0 | 0.00 | 0.00 | 0.00 | 30 | 1011.1 |
| 20260507211523 | 73 | 251 | 7.0 | 13.0 | 0.00 | 0.00 | 0.00 | 32 | 1011.3 |
| 20260507210018 | 74 | 222 | 8.0 | 15.0 | 0.00 | 0.00 | 0.00 | 30 | 1011.6 |
| 20260507204520 | 73 | 205 | 8.0 | 11.0 | 0.00 | 0.00 | 0.00 | 33 | 1012.0 |
| 20260507203013 | 72 | 225 | 5.0 | 12.0 | 0.00 | 0.00 | 0.00 | 36 | 1012.3 |
| 20260507201514 | 72 | 274 | 9.0 | 15.0 | 0.00 | 0.00 | 0.00 | 34 | 1012.7 |
| 20260507200011 | 72 | 245 | 4.0 | 13.0 | 0.00 | 0.00 | 0.00 | 34 | 1012.9 |
| 20260507194505 | 71 | 251 | 0.0 | 9.0 | 0.00 | 0.00 | 0.00 | 35 | 1013.2 |